createdAt,value
2023-01-15T00:01:22.775Z,7.30
2023-01-15T00:03:53.397Z,7.40
2023-01-15T00:06:24.921Z,7.30
2023-01-15T00:08:54.785Z,7.20
2023-01-15T00:11:25.160Z,7.20
2023-01-15T00:13:54.584Z,7.20
2023-01-15T00:16:25.979Z,7.30
2023-01-15T00:19:04.296Z,7.30
2023-01-15T00:21:33.958Z,7.30
2023-01-15T00:24:21.818Z,7.30
2023-01-15T00:27:09.142Z,7.30
2023-01-15T00:29:38.560Z,7.30
2023-01-15T00:32:10.401Z,7.30
2023-01-15T00:34:39.826Z,7.30
2023-01-15T00:37:09.354Z,7.20
2023-01-15T00:39:38.916Z,7.30
2023-01-15T00:42:08.450Z,7.20
2023-01-15T00:44:37.876Z,7.30
2023-01-15T00:47:09.426Z,7.20
2023-01-15T00:49:38.849Z,7.20
2023-01-15T00:52:11.629Z,7.30
2023-01-15T00:54:41.009Z,7.30
2023-01-15T00:57:11.597Z,7.20
2023-01-15T00:59:40.996Z,7.20
2023-01-15T01:02:10.483Z,7.20
2023-01-15T01:04:40.344Z,7.20
2023-01-15T01:07:09.849Z,7.30
2023-01-15T01:09:39.268Z,7.20
2023-01-15T01:12:08.824Z,7.10
2023-01-15T01:14:40.186Z,7.10
2023-01-15T01:17:10.044Z,7.20
2023-01-15T01:19:39.452Z,7.20
2023-01-15T01:22:09.763Z,7.20
2023-01-15T01:24:39.201Z,7.10
2023-01-15T01:27:09.513Z,7.00
2023-01-15T01:29:39.075Z,7.10
2023-01-15T01:32:08.500Z,7.00
2023-01-15T01:34:38.414Z,7.10
2023-01-15T01:37:07.823Z,7.00
2023-01-15T01:39:37.315Z,6.90
2023-01-15T01:42:16.067Z,6.90
2023-01-15T01:44:48.573Z,7.10
2023-01-15T01:47:22.557Z,7.10
2023-01-15T01:49:55.137Z,6.90
2023-01-15T01:52:30.947Z,6.90
2023-01-15T01:55:01.703Z,6.80
2023-01-15T01:57:32.840Z,6.90
2023-01-15T02:00:05.342Z,7.00
2023-01-15T02:02:37.237Z,7.00
2023-01-15T02:05:10.046Z,6.80
2023-01-15T02:07:40.513Z,6.70
2023-01-15T02:10:15.586Z,6.80
2023-01-15T02:12:48.099Z,6.80
2023-01-15T02:15:20.622Z,7.00
2023-01-15T02:18:17.395Z,6.90
2023-01-15T02:20:55.785Z,6.80
2023-01-15T02:23:30.956Z,7.00
2023-01-15T02:26:25.999Z,7.00
2023-01-15T02:28:58.252Z,6.80
2023-01-15T02:31:43.270Z,6.90
2023-01-15T02:34:34.823Z,6.90
2023-01-15T02:37:09.195Z,7.00
2023-01-15T02:39:41.801Z,6.90
2023-01-15T02:42:13.852Z,6.70
2023-01-15T02:44:48.091Z,6.80
2023-01-15T02:47:20.596Z,6.90
2023-01-15T02:49:53.060Z,6.80
2023-01-15T02:52:31.578Z,6.60
2023-01-15T02:55:06.980Z,6.70
2023-01-15T02:57:40.439Z,6.80
2023-01-15T03:00:12.959Z,6.90
2023-01-15T03:02:43.324Z,6.80
2023-01-15T03:05:16.208Z,6.80
2023-01-15T03:07:58.887Z,6.90
2023-01-15T03:10:59.054Z,6.90
2023-01-15T03:13:32.800Z,6.80
2023-01-15T03:16:23.233Z,6.90
2023-01-15T03:18:57.621Z,6.90
2023-01-15T03:21:33.509Z,7.00
2023-01-15T03:25:43.524Z,6.90
2023-01-15T03:28:15.026Z,6.80
2023-01-15T03:30:50.469Z,6.90
2023-01-15T03:33:21.044Z,7.00
2023-01-15T03:35:58.686Z,7.00
2023-01-15T03:38:46.465Z,7.10
2023-01-15T03:41:23.441Z,7.10
2023-01-15T03:44:07.595Z,7.10
2023-01-15T03:47:02.827Z,7.20
2023-01-15T03:49:45.095Z,7.10
2023-01-15T03:52:19.297Z,7.10
2023-01-15T03:55:05.920Z,7.10
2023-01-15T03:57:38.881Z,7.10
2023-01-15T04:00:13.273Z,7.20
2023-01-15T04:02:47.856Z,7.20
2023-01-15T04:05:20.023Z,7.20
2023-01-15T04:07:52.153Z,7.20
2023-01-15T04:10:21.845Z,7.30
2023-01-15T04:12:52.677Z,7.30
2023-01-15T04:15:22.664Z,7.20
2023-01-15T04:17:52.135Z,7.30
2023-01-15T04:20:23.615Z,7.30
2023-01-15T04:22:53.167Z,7.20
2023-01-15T04:25:22.592Z,7.30
2023-01-15T04:27:57.570Z,7.30
2023-01-15T04:30:26.997Z,7.20
2023-01-15T04:32:56.491Z,7.20
2023-01-15T04:35:26.383Z,7.20
2023-01-15T04:37:57.961Z,7.20
2023-01-15T04:40:46.868Z,7.30
2023-01-15T04:43:34.193Z,7.20
2023-01-15T04:46:04.276Z,7.20
2023-01-15T04:48:33.752Z,7.30
2023-01-15T04:51:07.882Z,7.20
2023-01-15T04:53:37.368Z,7.20
2023-01-15T04:56:07.654Z,7.20
2023-01-15T04:58:38.359Z,7.10
2023-01-15T05:01:16.546Z,7.20
2023-01-15T05:03:46.229Z,7.20
2023-01-15T05:06:15.780Z,7.20
2023-01-15T05:08:45.735Z,7.20
2023-01-15T05:11:15.353Z,7.10
2023-01-15T05:13:44.777Z,6.80
2023-01-15T05:16:24.978Z,6.60
2023-01-15T05:18:56.122Z,6.70
2023-01-15T05:21:29.036Z,6.50
2023-01-15T05:24:00.642Z,6.20
2023-01-15T05:26:32.935Z,6.40
2023-01-15T05:29:03.582Z,6.20
2023-01-15T05:31:36.568Z,6.10
2023-01-15T05:34:05.196Z,6.20
2023-01-15T05:36:35.514Z,6.10
2023-01-15T05:39:05.075Z,6.40
2023-01-15T05:41:49.866Z,6.30
2023-01-15T05:44:22.712Z,6.50
2023-01-15T05:46:55.071Z,6.10
2023-01-15T05:49:26.905Z,6.20
2023-01-15T05:51:56.789Z,6.30
2023-01-15T05:54:28.968Z,6.20
2023-01-15T05:56:58.520Z,6.30
2023-01-15T05:59:30.443Z,6.50
2023-01-15T06:02:00.286Z,6.30
2023-01-15T06:04:29.705Z,6.40
2023-01-15T06:07:00.523Z,6.40
2023-01-15T06:09:29.940Z,6.50
2023-01-15T06:11:59.395Z,6.30
2023-01-15T06:14:29.080Z,6.40
2023-01-15T06:16:58.509Z,6.60
2023-01-15T06:19:27.934Z,6.70
2023-01-15T06:21:58.207Z,6.50
2023-01-15T06:24:27.680Z,6.60
2023-01-15T06:26:57.119Z,6.70
2023-01-15T06:29:27.951Z,6.40
2023-01-15T06:31:57.395Z,6.60
2023-01-15T06:34:26.824Z,6.70
2023-01-15T06:36:56.474Z,6.70
2023-01-15T06:39:25.918Z,6.70
2023-01-15T06:42:13.281Z,6.70
2023-01-15T06:45:00.750Z,6.70
2023-01-15T06:47:31.076Z,6.60
2023-01-15T06:50:00.515Z,6.60
2023-01-15T06:52:31.373Z,6.80
2023-01-15T06:55:00.794Z,6.80
2023-01-15T06:57:30.253Z,7.00
2023-01-15T06:59:59.779Z,7.20
2023-01-15T07:02:29.214Z,7.60
2023-01-15T07:04:58.628Z,7.70
2023-01-15T07:07:30.251Z,7.80
2023-01-15T07:09:59.718Z,7.90
2023-01-15T07:12:29.197Z,8.10
2023-01-15T07:14:58.779Z,8.00
2023-01-15T07:17:28.206Z,8.10
2023-01-15T07:19:57.644Z,8.10
2023-01-15T07:22:27.085Z,8.10
2023-01-15T07:24:56.917Z,8.10
2023-01-15T07:27:26.348Z,7.90
2023-01-15T07:29:56.008Z,8.00
2023-01-15T07:32:26.195Z,7.80
2023-01-15T07:34:55.614Z,7.80
2023-01-15T07:37:26.810Z,7.90
2023-01-15T07:39:57.625Z,7.90
2023-01-15T07:42:45.660Z,7.90
2023-01-15T07:45:32.936Z,7.90
2023-01-15T07:48:20.632Z,7.70
2023-01-15T07:50:50.059Z,7.80
2023-01-15T07:53:19.471Z,7.80
2023-01-15T07:55:49.234Z,7.60
2023-01-15T07:58:18.654Z,7.70
2023-01-15T08:00:48.111Z,7.80
2023-01-15T08:03:17.944Z,7.80
2023-01-15T08:05:47.364Z,7.70
2023-01-15T08:08:18.141Z,7.70
2023-01-15T08:11:05.552Z,7.70
2023-01-15T08:13:52.607Z,7.80
2023-01-15T08:16:22.314Z,7.70
2023-01-15T08:18:51.812Z,7.70
2023-01-15T08:21:21.587Z,7.70
2023-01-15T08:23:51.202Z,7.70
2023-01-15T08:26:20.631Z,7.70
2023-01-15T08:28:50.053Z,7.90
2023-01-15T08:31:19.782Z,7.80
2023-01-15T08:33:49.256Z,7.90
2023-01-15T08:36:19.118Z,7.80
2023-01-15T08:38:50.860Z,7.90
2023-01-15T08:41:20.401Z,7.90
2023-01-15T08:43:49.826Z,7.90
2023-01-15T08:46:19.504Z,8.00
2023-01-15T08:48:49.451Z,7.90
2023-01-15T08:51:19.494Z,8.10
2023-01-15T08:53:49.196Z,8.00
2023-01-15T08:56:20.748Z,8.10
2023-01-15T08:58:50.461Z,8.10
2023-01-15T09:01:20.501Z,8.00
2023-01-15T09:03:49.965Z,8.00
2023-01-15T09:06:19.555Z,8.00
2023-01-15T09:08:49.774Z,8.00
2023-01-15T09:11:19.626Z,8.00
2023-01-15T09:13:50.687Z,8.10
2023-01-15T09:16:20.290Z,8.20
2023-01-15T09:18:49.835Z,8.10
2023-01-15T09:21:19.267Z,8.10
2023-01-15T09:23:48.823Z,8.30
2023-01-15T09:26:36.522Z,8.30
2023-01-15T09:29:09.449Z,8.30
2023-01-15T09:31:38.865Z,8.40
2023-01-15T09:34:08.361Z,8.30
2023-01-15T09:36:40.434Z,8.30
2023-01-15T09:39:09.215Z,8.40
2023-01-15T09:42:07.039Z,8.30
2023-01-15T09:45:03.588Z,8.30
2023-01-15T09:47:38.915Z,8.40
2023-01-15T09:50:26.255Z,8.20
2023-01-15T09:53:18.890Z,8.20
2023-01-15T09:55:53.539Z,8.30
2023-01-15T09:58:26.280Z,8.20
2023-01-15T10:00:55.773Z,8.30
2023-01-15T10:03:43.745Z,8.10
2023-01-15T10:06:18.942Z,8.10
2023-01-15T10:08:50.802Z,8.10
2023-01-15T10:11:23.303Z,8.10
2023-01-15T10:13:56.085Z,8.00
2023-01-15T10:16:31.493Z,8.10
2023-01-15T10:19:03.719Z,8.00
2023-01-15T10:21:54.406Z,8.00
2023-01-15T10:24:42.439Z,8.10
2023-01-15T10:27:21.755Z,8.10
2023-01-15T10:29:57.537Z,8.10
2023-01-15T10:32:39.193Z,8.20
2023-01-15T10:35:29.713Z,8.20
2023-01-15T10:38:15.371Z,8.10
2023-01-15T10:41:08.067Z,8.10
2023-01-15T10:43:49.481Z,8.30
2023-01-15T10:46:22.514Z,8.30
2023-01-15T10:48:57.835Z,8.40
2023-01-15T10:51:33.095Z,8.60
2023-01-15T10:54:18.017Z,8.50
2023-01-15T10:57:03.347Z,8.50
2023-01-15T10:59:41.414Z,8.70
2023-01-15T11:02:34.265Z,8.60
2023-01-15T11:05:05.340Z,8.60
2023-01-15T11:07:54.459Z,8.60
2023-01-15T11:10:18.106Z,8.70
2023-01-15T11:13:20.638Z,8.90
2023-01-15T11:16:01.770Z,8.90
2023-01-15T11:18:52.438Z,9.10
2023-01-15T11:21:24.681Z,9.10
2023-01-15T11:23:55.367Z,9.10
2023-01-15T11:26:33.194Z,9.20
2023-01-15T11:29:06.003Z,9.30
2023-01-15T11:31:40.006Z,9.40
2023-01-15T11:34:22.206Z,9.40
2023-01-15T11:37:04.104Z,9.40
2023-01-15T11:39:34.033Z,9.30
2023-01-15T11:42:24.288Z,9.50
2023-01-15T11:45:17.002Z,9.30
2023-01-15T11:48:14.143Z,9.40
2023-01-15T11:50:58.912Z,9.50
2023-01-15T11:53:31.256Z,9.40
2023-01-15T11:56:07.509Z,9.50
2023-01-15T11:58:48.159Z,9.50
2023-01-15T12:01:34.084Z,9.60
2023-01-15T12:04:09.701Z,9.60
2023-01-15T12:06:41.825Z,9.40
2023-01-15T12:09:22.632Z,9.70
2023-01-15T12:12:17.887Z,9.60
2023-01-15T12:14:56.267Z,9.70
2023-01-15T12:17:37.411Z,9.70
2023-01-15T12:20:24.332Z,9.70
2023-01-15T12:23:14.872Z,9.70
2023-01-15T12:26:13.015Z,9.80
2023-01-15T12:28:45.685Z,9.90
2023-01-15T12:31:18.994Z,9.80
2023-01-15T12:33:51.745Z,9.80
2023-01-15T12:36:29.888Z,9.90
2023-01-15T12:39:22.020Z,9.90
2023-01-15T12:42:12.796Z,10.00
2023-01-15T12:45:08.460Z,10.00
2023-01-15T12:47:47.161Z,9.90
2023-01-15T12:50:48.410Z,9.90
2023-01-15T12:53:32.677Z,9.80
2023-01-15T12:56:10.809Z,9.60
2023-01-15T12:58:48.922Z,9.50
2023-01-15T13:01:38.057Z,9.50
2023-01-15T13:04:13.369Z,9.40
2023-01-15T13:06:46.040Z,9.40
2023-01-15T13:09:33.778Z,9.30
2023-01-15T13:12:04.196Z,9.30
2023-01-15T13:14:34.175Z,9.30
2023-01-15T13:17:06.828Z,9.30
2023-01-15T13:19:48.105Z,9.30
2023-01-15T13:22:20.620Z,9.20
2023-01-15T13:25:12.209Z,9.30
2023-01-15T13:27:54.235Z,9.30
2023-01-15T13:30:29.282Z,9.30
2023-01-15T13:33:02.237Z,9.30
2023-01-15T13:35:34.724Z,9.40
2023-01-15T13:38:09.029Z,9.40
2023-01-15T13:40:45.735Z,9.40
2023-01-15T13:43:30.180Z,9.00
2023-01-15T13:46:00.739Z,8.60
2023-01-15T13:48:36.337Z,8.50
2023-01-15T13:51:08.503Z,8.10
2023-01-15T13:53:41.303Z,8.00
2023-01-15T13:56:15.447Z,8.10
2023-01-15T13:58:57.834Z,8.20
2023-01-15T14:01:34.000Z,8.30
2023-01-15T14:04:12.904Z,8.40
2023-01-15T14:06:45.766Z,8.30
2023-01-15T14:09:15.994Z,8.30
2023-01-15T14:12:17.055Z,8.40
2023-01-15T14:15:19.631Z,8.60
2023-01-15T14:18:00.863Z,8.70
2023-01-15T14:20:36.569Z,8.60
2023-01-15T14:23:20.404Z,8.60
2023-01-15T14:26:08.293Z,8.70
2023-01-15T14:28:55.148Z,8.80
2023-01-15T14:31:43.846Z,8.70
2023-01-15T14:34:19.256Z,8.70
2023-01-15T14:36:56.396Z,8.70
2023-01-15T14:39:28.899Z,8.70
2023-01-15T14:42:19.226Z,8.50
2023-01-15T14:44:52.183Z,8.40
2023-01-15T14:47:24.881Z,8.40
2023-01-15T14:50:03.377Z,8.20
2023-01-15T14:52:34.742Z,8.30
2023-01-15T14:55:04.296Z,8.20
2023-01-15T14:57:34.967Z,8.10
2023-01-15T15:00:06.330Z,8.20
2023-01-15T15:02:41.912Z,8.20
2023-01-15T15:05:22.821Z,8.30
2023-01-15T15:07:55.732Z,8.30
2023-01-15T15:10:33.831Z,8.20
2023-01-15T15:13:23.254Z,8.20
2023-01-15T15:16:23.247Z,8.30
2023-01-15T15:18:57.578Z,8.30
2023-01-15T15:21:30.066Z,8.20
2023-01-15T15:24:08.542Z,8.10
2023-01-15T15:26:39.805Z,8.00
2023-01-15T15:29:18.014Z,8.00
2023-01-15T15:32:00.519Z,8.00
2023-01-15T15:34:33.044Z,8.00
2023-01-15T15:37:05.536Z,8.00
2023-01-15T15:40:06.659Z,8.00
2023-01-15T15:42:59.188Z,8.00
2023-01-15T15:45:49.678Z,8.00
2023-01-15T15:48:45.292Z,7.90
2023-01-15T15:51:33.477Z,7.90
2023-01-15T15:54:17.788Z,7.90
2023-01-15T15:57:08.585Z,7.90
2023-01-15T15:59:41.105Z,7.90
2023-01-15T16:02:26.512Z,7.90
2023-01-15T16:04:58.931Z,7.90
2023-01-15T16:07:37.631Z,7.90
2023-01-15T16:10:26.838Z,7.80
2023-01-15T16:13:00.070Z,7.80
2023-01-15T16:15:33.033Z,7.70
2023-01-15T16:18:03.952Z,7.70
2023-01-15T16:20:34.733Z,7.60
2023-01-15T16:23:06.480Z,7.60
2023-01-15T16:25:39.000Z,7.50
2023-01-15T16:28:10.996Z,7.50
2023-01-15T16:30:40.878Z,7.40
2023-01-15T16:33:10.419Z,7.40
2023-01-15T16:35:40.945Z,7.40
2023-01-15T16:38:15.091Z,7.30
2023-01-15T16:40:47.205Z,7.20
2023-01-15T16:43:27.690Z,7.20
2023-01-15T16:46:09.250Z,7.20
2023-01-15T16:48:41.024Z,7.20
2023-01-15T16:51:35.010Z,7.10
2023-01-15T16:54:08.801Z,7.10
2023-01-15T16:56:42.399Z,7.10
2023-01-15T16:59:17.127Z,7.10
2023-01-15T17:01:48.973Z,7.00
2023-01-15T17:04:24.704Z,7.00
2023-01-15T17:07:03.449Z,6.90
2023-01-15T17:09:36.272Z,6.80
2023-01-15T17:12:09.601Z,6.90
2023-01-15T17:14:39.028Z,6.90
2023-01-15T17:17:26.430Z,6.80
2023-01-15T17:19:57.930Z,6.80
2023-01-15T17:22:31.634Z,6.90
2023-01-15T17:25:01.210Z,6.80
2023-01-15T17:27:31.496Z,6.80
2023-01-15T17:30:01.013Z,6.80
2023-01-15T17:32:40.717Z,6.60
2023-01-15T17:35:25.160Z,6.50
2023-01-15T17:37:54.884Z,6.50
2023-01-15T17:40:25.604Z,6.40
2023-01-15T17:42:56.815Z,6.40
2023-01-15T17:45:28.801Z,6.40
2023-01-15T17:47:58.331Z,6.50
2023-01-15T17:50:28.798Z,6.50
2023-01-15T17:52:58.655Z,6.50
2023-01-15T17:55:46.405Z,6.50
2023-01-15T17:58:35.556Z,6.50
2023-01-15T18:01:25.913Z,6.50
2023-01-15T18:04:14.404Z,6.50
2023-01-15T18:06:47.165Z,6.50
2023-01-15T18:09:17.611Z,6.40
2023-01-15T18:11:46.971Z,6.40
2023-01-15T18:14:16.407Z,6.40
2023-01-15T18:16:46.330Z,6.40
2023-01-15T18:19:15.755Z,6.30
2023-01-15T18:21:45.648Z,6.30
2023-01-15T18:24:17.473Z,6.40
2023-01-15T18:26:46.885Z,6.40
2023-01-15T18:29:16.402Z,6.50
2023-01-15T18:31:46.447Z,6.40
2023-01-15T18:34:16.013Z,6.40
2023-01-15T18:36:45.444Z,6.40
2023-01-15T18:39:15.163Z,6.30
2023-01-15T18:41:46.213Z,6.20
2023-01-15T18:44:35.945Z,6.00
2023-01-15T18:47:12.494Z,5.80
2023-01-15T18:49:44.017Z,6.00
2023-01-15T18:52:34.320Z,6.00
2023-01-15T18:55:04.423Z,6.00
2023-01-15T18:57:34.894Z,6.00
2023-01-15T19:00:07.086Z,6.10
2023-01-15T19:02:36.655Z,6.10
2023-01-15T19:05:06.768Z,6.00
2023-01-15T19:07:36.230Z,6.00
2023-01-15T19:10:06.222Z,6.00
2023-01-15T19:12:39.545Z,6.00
2023-01-15T19:15:29.024Z,6.00
2023-01-15T19:18:16.515Z,6.00
2023-01-15T19:20:46.003Z,5.90
2023-01-15T19:23:15.963Z,5.90
2023-01-15T19:25:51.491Z,5.90
2023-01-15T19:28:22.158Z,5.90
2023-01-15T19:31:09.856Z,5.80
2023-01-15T19:33:39.393Z,5.90
2023-01-15T19:36:09.328Z,5.90
2023-01-15T19:38:40.492Z,5.90
2023-01-15T19:41:31.839Z,5.80
2023-01-15T19:44:19.640Z,5.70
2023-01-15T19:47:06.703Z,5.80
2023-01-15T19:49:56.172Z,5.70
2023-01-15T19:52:38.235Z,5.70
2023-01-15T19:55:11.993Z,5.70
2023-01-15T19:57:43.387Z,5.60
2023-01-15T20:00:16.726Z,5.60
2023-01-15T20:02:47.941Z,5.60
2023-01-15T20:05:18.394Z,5.60
2023-01-15T20:07:47.900Z,5.50
2023-01-15T20:10:23.347Z,5.60
2023-01-15T20:13:11.553Z,5.60
2023-01-15T20:15:46.193Z,5.60
2023-01-15T20:18:17.700Z,5.60
2023-01-15T20:20:47.192Z,5.50
2023-01-15T20:23:16.683Z,5.50
2023-01-15T20:25:47.781Z,5.40
2023-01-15T20:28:19.710Z,5.40
2023-01-15T20:30:49.317Z,5.40
2023-01-15T20:33:18.806Z,5.40
2023-01-15T20:35:49.320Z,5.30
2023-01-15T20:38:19.265Z,5.30
2023-01-15T20:40:49.424Z,5.30
2023-01-15T20:43:38.114Z,5.30
2023-01-15T20:46:17.088Z,5.20
2023-01-15T20:49:04.694Z,5.20
2023-01-15T20:51:34.202Z,5.20
2023-01-15T20:54:06.700Z,5.20
2023-01-15T20:56:36.159Z,5.10
2023-01-15T20:59:06.259Z,5.10
2023-01-15T21:01:35.841Z,5.10
2023-01-15T21:04:06.898Z,5.10
2023-01-15T21:07:10.249Z,5.10
2023-01-15T21:09:12.470Z,5.10
2023-01-15T21:11:42.659Z,5.10
2023-01-15T21:14:14.352Z,5.10
2023-01-15T21:16:43.850Z,5.10
2023-01-15T21:19:14.753Z,5.10
2023-01-15T21:21:44.679Z,5.10
2023-01-15T21:24:14.154Z,5.10
2023-01-15T21:26:45.838Z,5.10
2023-01-15T21:29:17.789Z,5.10
2023-01-15T21:31:48.381Z,5.10
2023-01-15T21:34:21.437Z,5.10
2023-01-15T21:36:52.868Z,5.10
2023-01-15T21:39:22.708Z,5.10
2023-01-15T21:42:10.595Z,5.10
2023-01-15T21:44:44.536Z,5.10
2023-01-15T21:47:16.483Z,5.10
2023-01-15T21:49:48.655Z,5.10
2023-01-15T21:52:19.866Z,5.00
2023-01-15T21:54:50.462Z,4.90
2023-01-15T21:57:21.890Z,5.00
2023-01-15T21:59:52.072Z,4.90
2023-01-15T22:02:23.202Z,4.90
2023-01-15T22:04:58.204Z,4.80
2023-01-15T22:07:27.725Z,4.90
2023-01-15T22:10:03.349Z,4.90
2023-01-15T22:12:34.424Z,4.70
2023-01-15T22:15:03.894Z,4.70
2023-01-15T22:17:33.309Z,4.80
2023-01-15T22:20:03.136Z,4.80
2023-01-15T22:22:34.259Z,4.70
2023-01-15T22:25:05.820Z,4.60
2023-01-15T22:27:36.980Z,4.50
2023-01-15T22:30:09.754Z,4.50
2023-01-15T22:32:38.526Z,4.40
2023-01-15T22:35:10.535Z,4.30
2023-01-15T22:37:40.196Z,4.30
2023-01-15T22:40:10.527Z,4.20
2023-01-15T22:42:39.955Z,4.30
2023-01-15T22:45:09.944Z,4.20
2023-01-15T22:47:39.386Z,4.10
2023-01-15T22:50:10.797Z,4.20
2023-01-15T22:52:41.543Z,4.10
2023-01-15T22:55:12.749Z,4.10
2023-01-15T22:57:42.242Z,4.10
2023-01-15T23:00:13.182Z,4.10
2023-01-15T23:02:54.880Z,4.10
2023-01-15T23:05:25.493Z,4.10
2023-01-15T23:07:54.910Z,4.00
2023-01-15T23:10:24.495Z,4.10
2023-01-15T23:12:54.684Z,4.10
2023-01-15T23:15:25.097Z,4.00
2023-01-15T23:17:54.565Z,3.90
2023-01-15T23:20:24.306Z,3.90
2023-01-15T23:22:53.721Z,3.80
2023-01-15T23:25:23.480Z,3.70
2023-01-15T23:27:53.557Z,3.70
2023-01-15T23:30:24.494Z,3.80
2023-01-15T23:32:54.288Z,3.90
2023-01-15T23:35:23.893Z,3.90
2023-01-15T23:37:53.320Z,3.90
2023-01-15T23:40:22.827Z,4.00
2023-01-15T23:43:11.040Z,4.00
2023-01-15T23:45:58.613Z,3.90
2023-01-15T23:48:28.091Z,4.00
2023-01-15T23:50:57.521Z,4.10
2023-01-15T23:53:26.999Z,4.10
2023-01-15T23:56:00.144Z,4.00
2023-01-15T23:58:29.873Z,4.00
